sensor_id;sensor_type;location;lat;lon;timestamp;pressure;altitude;pressure_sealevel;temperature
22269;BMP280;11303;50.772;19.670;2023-06-22T00:00:32;99106.84;;;18.39
22269;BMP280;11303;50.772;19.670;2023-06-22T00:02:34;99103.06;;;18.41
22269;BMP280;11303;50.772;19.670;2023-06-22T00:04:35;99103.13;;;18.37
22269;BMP280;11303;50.772;19.670;2023-06-22T00:06:37;99099.69;;;18.40
22269;BMP280;11303;50.772;19.670;2023-06-22T00:08:38;99101.63;;;18.32
22269;BMP280;11303;50.772;19.670;2023-06-22T00:10:41;99103.19;;;18.23
22269;BMP280;11303;50.772;19.670;2023-06-22T00:12:42;99109.22;;;18.20
22269;BMP280;11303;50.772;19.670;2023-06-22T00:14:44;99107.69;;;18.18
22269;BMP280;11303;50.772;19.670;2023-06-22T00:16:45;99113.00;;;18.15
22269;BMP280;11303;50.772;19.670;2023-06-22T00:18:50;99115.25;;;18.16
22269;BMP280;11303;50.772;19.670;2023-06-22T00:20:51;99104.72;;;18.16
22269;BMP280;11303;50.772;19.670;2023-06-22T00:22:59;99098.69;;;18.16
22269;BMP280;11303;50.772;19.670;2023-06-22T00:25:01;99091.94;;;18.15
22269;BMP280;11303;50.772;19.670;2023-06-22T00:27:03;99104.34;;;18.14
22269;BMP280;11303;50.772;19.670;2023-06-22T00:29:06;99093.09;;;18.10
22269;BMP280;11303;50.772;19.670;2023-06-22T00:31:08;99092.00;;;18.08
22269;BMP280;11303;50.772;19.670;2023-06-22T00:33:09;99092.00;;;18.08
22269;BMP280;11303;50.772;19.670;2023-06-22T00:35:12;99089.72;;;18.06
22269;BMP280;11303;50.772;19.670;2023-06-22T00:37:14;99091.63;;;18.02
22269;BMP280;11303;50.772;19.670;2023-06-22T00:39:15;99091.63;;;18.02
22269;BMP280;11303;50.772;19.670;2023-06-22T00:41:18;99088.63;;;18.00
22269;BMP280;11303;50.772;19.670;2023-06-22T00:43:19;99086.41;;;17.99
22269;BMP280;11303;50.772;19.670;2023-06-22T00:45:22;99093.53;;;17.98
22269;BMP280;11303;50.772;19.670;2023-06-22T00:47:24;99097.63;;;17.99
22269;BMP280;11303;50.772;19.670;2023-06-22T00:49:26;99095.41;;;17.97
22269;BMP280;11303;50.772;19.670;2023-06-22T00:51:28;99100.28;;;17.95
22269;BMP280;11303;50.772;19.670;2023-06-22T00:53:30;99097.31;;;17.93
22269;BMP280;11303;50.772;19.670;2023-06-22T00:55:45;99104.81;;;17.95
22269;BMP280;11303;50.772;19.670;2023-06-22T00:57:53;99104.81;;;17.95
22269;BMP280;11303;50.772;19.670;2023-06-22T00:59:57;99099.56;;;17.91
22269;BMP280;11303;50.772;19.670;2023-06-22T01:01:59;99096.94;;;17.88
22269;BMP280;11303;50.772;19.670;2023-06-22T01:04:01;99098.84;;;17.84
22269;BMP280;11303;50.772;19.670;2023-06-22T01:06:09;99102.63;;;17.83
22269;BMP280;11303;50.772;19.670;2023-06-22T01:08:35;99106.31;;;17.85
22269;BMP280;11303;50.772;19.670;2023-06-22T01:11:05;99102.25;;;17.84
22269;BMP280;11303;50.772;19.670;2023-06-22T01:15:34;99105.59;;;17.85
22269;BMP280;11303;50.772;19.670;2023-06-22T01:17:40;99107.09;;;17.86
22269;BMP280;11303;50.772;19.670;2023-06-22T01:21:49;99093.91;;;17.89
22269;BMP280;11303;50.772;19.670;2023-06-22T01:24:10;99098.81;;;17.91
22269;BMP280;11303;50.772;19.670;2023-06-22T01:26:20;99099.19;;;17.93
22269;BMP280;11303;50.772;19.670;2023-06-22T01:28:49;99094.66;;;17.97
22269;BMP280;11303;50.772;19.670;2023-06-22T01:30:51;99094.63;;;18.01
22269;BMP280;11303;50.772;19.670;2023-06-22T01:33:06;99099.50;;;18.02
22269;BMP280;11303;50.772;19.670;2023-06-22T01:35:10;99105.13;;;18.04
22269;BMP280;11303;50.772;19.670;2023-06-22T01:37:13;99105.50;;;18.06
22269;BMP280;11303;50.772;19.670;2023-06-22T01:39:16;99102.88;;;18.06
22269;BMP280;11303;50.772;19.670;2023-06-22T01:41:19;99108.50;;;18.05
22269;BMP280;11303;50.772;19.670;2023-06-22T01:43:22;99110.78;;;18.06
22269;BMP280;11303;50.772;19.670;2023-06-22T01:45:25;99100.22;;;18.10
22269;BMP280;11303;50.772;19.670;2023-06-22T01:47:27;99100.22;;;18.10
22269;BMP280;11303;50.772;19.670;2023-06-22T01:49:29;99098.75;;;18.09
22269;BMP280;11303;50.772;19.670;2023-06-22T01:51:31;99103.25;;;18.08
22269;BMP280;11303;50.772;19.670;2023-06-22T01:53:33;99117.56;;;18.07
22269;BMP280;11303;50.772;19.670;2023-06-22T01:55:35;99121.25;;;18.10
22269;BMP280;11303;50.772;19.670;2023-06-22T01:57:37;99119.81;;;18.09
22269;BMP280;11303;50.772;19.670;2023-06-22T02:00:03;99119.81;;;18.09
22269;BMP280;11303;50.772;19.670;2023-06-22T02:02:07;99122.03;;;18.07
22269;BMP280;11303;50.772;19.670;2023-06-22T02:04:21;99129.56;;;18.05
22269;BMP280;11303;50.772;19.670;2023-06-22T02:06:36;99121.31;;;17.99
22269;BMP280;11303;50.772;19.670;2023-06-22T02:08:47;99124.72;;;17.96
22269;BMP280;11303;50.772;19.670;2023-06-22T02:10:51;99139.00;;;17.95
22269;BMP280;11303;50.772;19.670;2023-06-22T02:12:54;99140.47;;;17.96
22269;BMP280;11303;50.772;19.670;2023-06-22T02:14:57;99143.88;;;17.96
22269;BMP280;11303;50.772;19.670;2023-06-22T02:16:59;99131.84;;;17.95
22269;BMP280;11303;50.772;19.670;2023-06-22T02:19:02;99143.13;;;17.96
22269;BMP280;11303;50.772;19.670;2023-06-22T02:21:07;99141.63;;;17.95
22269;BMP280;11303;50.772;19.670;2023-06-22T02:23:09;99139.75;;;17.95
22269;BMP280;11303;50.772;19.670;2023-06-22T02:25:10;99143.13;;;17.96
22269;BMP280;11303;50.772;19.670;2023-06-22T02:27:12;99141.63;;;17.95
22269;BMP280;11303;50.772;19.670;2023-06-22T02:29:14;99142.75;;;17.94
22269;BMP280;11303;50.772;19.670;2023-06-22T02:31:15;99152.56;;;17.93
22269;BMP280;11303;50.772;19.670;2023-06-22T02:33:17;99151.78;;;17.93
22269;BMP280;11303;50.772;19.670;2023-06-22T02:35:19;99150.28;;;17.88
22269;BMP280;11303;50.772;19.670;2023-06-22T02:37:20;99152.53;;;17.86
22269;BMP280;11303;50.772;19.670;2023-06-22T02:39:25;99152.91;;;17.88
22269;BMP280;11303;50.772;19.670;2023-06-22T02:41:27;99147.66;;;17.88
22269;BMP280;11303;50.772;19.670;2023-06-22T02:43:29;99155.91;;;17.87
22269;BMP280;11303;50.772;19.670;2023-06-22T02:45:30;99160.81;;;17.85
22269;BMP280;11303;50.772;19.670;2023-06-22T02:47:32;99163.44;;;17.85
22269;BMP280;11303;50.772;19.670;2023-06-22T02:49:35;99160.47;;;17.83
22269;BMP280;11303;50.772;19.670;2023-06-22T02:51:39;99165.72;;;17.79
22269;BMP280;11303;50.772;19.670;2023-06-22T02:53:40;99169.47;;;17.82
22269;BMP280;11303;50.772;19.670;2023-06-22T02:55:45;99176.59;;;17.85
22269;BMP280;11303;50.772;19.670;2023-06-22T02:57:47;99187.47;;;17.90
22269;BMP280;11303;50.772;19.670;2023-06-22T02:59:49;99188.22;;;17.98
22269;BMP280;11303;50.772;19.670;2023-06-22T03:01:50;99188.94;;;18.02
22269;BMP280;11303;50.772;19.670;2023-06-22T03:03:52;99189.31;;;18.04
22269;BMP280;11303;50.772;19.670;2023-06-22T03:05:54;99191.56;;;18.06
22269;BMP280;11303;50.772;19.670;2023-06-22T03:07:56;99195.31;;;18.12
22269;BMP280;11303;50.772;19.670;2023-06-22T03:09:57;99194.91;;;18.17
22269;BMP280;11303;50.772;19.670;2023-06-22T03:11:59;99194.88;;;18.28
22269;BMP280;11303;50.772;19.670;2023-06-22T03:14:01;99198.56;;;18.41
22269;BMP280;11303;50.772;19.670;2023-06-22T03:16:03;99200.00;;;18.53
22269;BMP280;11303;50.772;19.670;2023-06-22T03:18:05;99215.03;;;18.59
22269;BMP280;11303;50.772;19.670;2023-06-22T03:20:07;99215.38;;;18.65
22269;BMP280;11303;50.772;19.670;2023-06-22T03:22:15;99208.97;;;18.70
22269;BMP280;11303;50.772;19.670;2023-06-22T03:24:17;99218.34;;;18.67
22269;BMP280;11303;50.772;19.670;2023-06-22T03:26:18;99207.81;;;18.67
22269;BMP280;11303;50.772;19.670;2023-06-22T03:28:20;99214.59;;;18.68
22269;BMP280;11303;50.772;19.670;2023-06-22T03:30:22;99209.00;;;18.66
22269;BMP280;11303;50.772;19.670;2023-06-22T03:32:24;99216.91;;;18.66
22269;BMP280;11303;50.772;19.670;2023-06-22T03:34:27;99219.53;;;18.66
22269;BMP280;11303;50.772;19.670;2023-06-22T03:36:29;99222.13;;;18.70
22269;BMP280;11303;50.772;19.670;2023-06-22T03:38:30;99220.94;;;18.78
22269;BMP280;11303;50.772;19.670;2023-06-22T03:40:32;99226.94;;;18.89
22269;BMP280;11303;50.772;19.670;2023-06-22T03:42:34;99228.69;;;18.99
22269;BMP280;11303;50.772;19.670;2023-06-22T03:44:37;99232.09;;;19.04
22269;BMP280;11303;50.772;19.670;2023-06-22T03:46:38;99238.47;;;19.06
22269;BMP280;11303;50.772;19.670;2023-06-22T03:48:40;99243.69;;;19.10
22269;BMP280;11303;50.772;19.670;2023-06-22T03:50:41;99242.13;;;19.23
22269;BMP280;11303;50.772;19.670;2023-06-22T03:52:45;99237.81;;;19.43
22269;BMP280;11303;50.772;19.670;2023-06-22T03:54:47;99227.50;;;19.60
22269;BMP280;11303;50.772;19.670;2023-06-22T03:56:48;99244.66;;;19.75
22269;BMP280;11303;50.772;19.670;2023-06-22T03:58:50;99244.53;;;19.86
22269;BMP280;11303;50.772;19.670;2023-06-22T04:00:52;99249.34;;;19.98
22269;BMP280;11303;50.772;19.670;2023-06-22T04:02:54;99249.97;;;20.10
22269;BMP280;11303;50.772;19.670;2023-06-22T04:04:56;99256.59;;;20.21
22269;BMP280;11303;50.772;19.670;2023-06-22T04:06:57;99252.66;;;20.37
22269;BMP280;11303;50.772;19.670;2023-06-22T04:08:59;99255.16;;;20.47
22269;BMP280;11303;50.772;19.670;2023-06-22T04:11:02;99254.63;;;20.60
22269;BMP280;11303;50.772;19.670;2023-06-22T04:13:04;99259.59;;;20.85
22269;BMP280;11303;50.772;19.670;2023-06-22T04:15:06;99255.00;;;21.12
22269;BMP280;11303;50.772;19.670;2023-06-22T04:17:07;99252.94;;;21.24
22269;BMP280;11303;50.772;19.670;2023-06-22T04:19:09;99260.91;;;21.44
22269;BMP280;11303;50.772;19.670;2023-06-22T04:21:17;99259.03;;;21.64
22269;BMP280;11303;50.772;19.670;2023-06-22T04:23:21;99270.28;;;21.92
22269;BMP280;11303;50.772;19.670;2023-06-22T04:25:23;99266.94;;;22.08
22269;BMP280;11303;50.772;19.670;2023-06-22T04:27:25;99265.66;;;22.16
22269;BMP280;11303;50.772;19.670;2023-06-22T04:29:26;99261.81;;;22.17
22269;BMP280;11303;50.772;19.670;2023-06-22T04:31:32;99260.00;;;21.94
22269;BMP280;11303;50.772;19.670;2023-06-22T04:33:38;99271.28;;;21.78
22269;BMP280;11303;50.772;19.670;2023-06-22T04:35:44;99261.41;;;21.58
22269;BMP280;11303;50.772;19.670;2023-06-22T04:37:45;99258.78;;;21.58
22269;BMP280;11303;50.772;19.670;2023-06-22T04:39:49;99263.41;;;21.54
22269;BMP280;11303;50.772;19.670;2023-06-22T04:41:51;99265.00;;;21.92
22269;BMP280;11303;50.772;19.670;2023-06-22T04:43:53;99258.44;;;22.16
22269;BMP280;11303;50.772;19.670;2023-06-22T04:45:56;99263.25;;;22.58
22269;BMP280;11303;50.772;19.670;2023-06-22T04:48:05;99260.50;;;23.10
22269;BMP280;11303;50.772;19.670;2023-06-22T04:50:08;99261.94;;;23.44
22269;BMP280;11303;50.772;19.670;2023-06-22T04:52:11;99265.56;;;23.80
22269;BMP280;11303;50.772;19.670;2023-06-22T04:54:12;99265.03;;;23.97
22269;BMP280;11303;50.772;19.670;2023-06-22T04:56:14;99265.94;;;24.20
22269;BMP280;11303;50.772;19.670;2023-06-22T04:58:17;99258.91;;;24.52
22269;BMP280;11303;50.772;19.670;2023-06-22T05:00:21;99253.59;;;24.64
22269;BMP280;11303;50.772;19.670;2023-06-22T05:02:24;99256.53;;;24.67
22269;BMP280;11303;50.772;19.670;2023-06-22T05:04:29;99255.25;;;24.84
22269;BMP280;11303;50.772;19.670;2023-06-22T05:06:34;99252.69;;;25.15
22269;BMP280;11303;50.772;19.670;2023-06-22T05:08:36;99252.91;;;24.73
22269;BMP280;11303;50.772;19.670;2023-06-22T05:10:37;99255.44;;;25.12
22269;BMP280;11303;50.772;19.670;2023-06-22T05:12:55;99255.09;;;25.22
22269;BMP280;11303;50.772;19.670;2023-06-22T05:14:57;99259.66;;;25.00
22269;BMP280;11303;50.772;19.670;2023-06-22T05:16:58;99260.22;;;24.95
22269;BMP280;11303;50.772;19.670;2023-06-22T05:19:05;99263.66;;;25.17
22269;BMP280;11303;50.772;19.670;2023-06-22T05:21:07;99261.16;;;25.23
22269;BMP280;11303;50.772;19.670;2023-06-22T05:23:08;99258.94;;;25.21
22269;BMP280;11303;50.772;19.670;2023-06-22T05:25:11;99265.34;;;25.33
22269;BMP280;11303;50.772;19.670;2023-06-22T05:27:13;99262.75;;;24.98
22269;BMP280;11303;50.772;19.670;2023-06-22T05:29:15;99264.97;;;25.00
22269;BMP280;11303;50.772;19.670;2023-06-22T05:31:17;99271.00;;;24.78
22269;BMP280;11303;50.772;19.670;2023-06-22T05:33:21;99265.59;;;24.56
22269;BMP280;11303;50.772;19.670;2023-06-22T05:35:22;99270.69;;;24.63
22269;BMP280;11303;50.772;19.670;2023-06-22T05:37:24;99268.44;;;24.62
22269;BMP280;11303;50.772;19.670;2023-06-22T05:39:26;99273.34;;;24.76
22269;BMP280;11303;50.772;19.670;2023-06-22T05:41:27;99278.41;;;25.18
22269;BMP280;11303;50.772;19.670;2023-06-22T05:43:29;99281.81;;;25.63
22269;BMP280;11303;50.772;19.670;2023-06-22T05:45:30;99285.97;;;25.86
22269;BMP280;11303;50.772;19.670;2023-06-22T05:47:32;99278.94;;;26.01
22269;BMP280;11303;50.772;19.670;2023-06-22T05:49:33;99285.31;;;25.72
22269;BMP280;11303;50.772;19.670;2023-06-22T05:51:35;99287.75;;;25.89
22269;BMP280;11303;50.772;19.670;2023-06-22T05:53:37;99287.25;;;25.59
22269;BMP280;11303;50.772;19.670;2023-06-22T05:55:38;99287.22;;;25.50
22269;BMP280;11303;50.772;19.670;2023-06-22T05:57:40;99279.66;;;25.26
22269;BMP280;11303;50.772;19.670;2023-06-22T05:59:42;99290.66;;;25.82
22269;BMP280;11303;50.772;19.670;2023-06-22T06:01:43;99292.53;;;26.43
22269;BMP280;11303;50.772;19.670;2023-06-22T06:03:45;99306.06;;;26.58
22269;BMP280;11303;50.772;19.670;2023-06-22T06:05:47;99303.28;;;26.99
22269;BMP280;11303;50.772;19.670;2023-06-22T06:07:49;99299.28;;;26.94
22269;BMP280;11303;50.772;19.670;2023-06-22T06:09:51;99294.19;;;27.33
22269;BMP280;11303;50.772;19.670;2023-06-22T06:11:52;99293.22;;;27.12
22269;BMP280;11303;50.772;19.670;2023-06-22T06:13:54;99293.78;;;27.34
22269;BMP280;11303;50.772;19.670;2023-06-22T06:15:56;99286.63;;;27.41
22269;BMP280;11303;50.772;19.670;2023-06-22T06:17:58;99285.75;;;26.61
22269;BMP280;11303;50.772;19.670;2023-06-22T06:20:01;99293.50;;;25.87
22269;BMP280;11303;50.772;19.670;2023-06-22T06:22:04;99278.78;;;25.73
22269;BMP280;11303;50.772;19.670;2023-06-22T06:24:05;99290.75;;;25.69
22269;BMP280;11303;50.772;19.670;2023-06-22T06:26:08;99286.03;;;25.29
22269;BMP280;11303;50.772;19.670;2023-06-22T06:28:09;99289.38;;;25.86
22269;BMP280;11303;50.772;19.670;2023-06-22T06:30:12;99296.91;;;26.28
22269;BMP280;11303;50.772;19.670;2023-06-22T06:32:15;99294.78;;;25.51
22269;BMP280;11303;50.772;19.670;2023-06-22T06:34:16;99298.97;;;26.15
22269;BMP280;11303;50.772;19.670;2023-06-22T06:36:18;99304.22;;;26.37
22269;BMP280;11303;50.772;19.670;2023-06-22T06:38:20;99301.31;;;26.72
22269;BMP280;11303;50.772;19.670;2023-06-22T06:40:21;99311.28;;;27.08
22269;BMP280;11303;50.772;19.670;2023-06-22T06:42:23;99304.44;;;27.34
22269;BMP280;11303;50.772;19.670;2023-06-22T06:44:25;99299.47;;;27.70
22269;BMP280;11303;50.772;19.670;2023-06-22T06:46:27;99304.75;;;27.88
22269;BMP280;11303;50.772;19.670;2023-06-22T06:48:28;99298.16;;;28.32
22269;BMP280;11303;50.772;19.670;2023-06-22T06:50:30;99295.59;;;28.13
22269;BMP280;11303;50.772;19.670;2023-06-22T06:52:32;99302.72;;;27.74
22269;BMP280;11303;50.772;19.670;2023-06-22T06:54:35;99297.94;;;26.89
22269;BMP280;11303;50.772;19.670;2023-06-22T06:56:37;99300.94;;;26.33
22269;BMP280;11303;50.772;19.670;2023-06-22T06:58:41;99303.00;;;26.29
22269;BMP280;11303;50.772;19.670;2023-06-22T07:00:43;99306.88;;;25.96
22269;BMP280;11303;50.772;19.670;2023-06-22T07:02:45;99309.72;;;26.61
22269;BMP280;11303;50.772;19.670;2023-06-22T07:04:49;99311.56;;;27.38
22269;BMP280;11303;50.772;19.670;2023-06-22T07:06:51;99299.09;;;27.44
22269;BMP280;11303;50.772;19.670;2023-06-22T07:08:52;99301.69;;;27.71
22269;BMP280;11303;50.772;19.670;2023-06-22T07:10:54;99289.22;;;27.68
22269;BMP280;11303;50.772;19.670;2023-06-22T07:12:55;99289.38;;;28.07
22269;BMP280;11303;50.772;19.670;2023-06-22T07:15:06;99288.63;;;27.73
22269;BMP280;11303;50.772;19.670;2023-06-22T07:17:09;99295.06;;;27.48
22269;BMP280;11303;50.772;19.670;2023-06-22T07:19:11;99292.44;;;26.93
22269;BMP280;11303;50.772;19.670;2023-06-22T07:21:13;99291.00;;;27.01
22269;BMP280;11303;50.772;19.670;2023-06-22T07:23:16;99287.56;;;26.82
22269;BMP280;11303;50.772;19.670;2023-06-22T07:25:18;99297.22;;;26.89
22269;BMP280;11303;50.772;19.670;2023-06-22T07:27:20;99289.91;;;26.80
22269;BMP280;11303;50.772;19.670;2023-06-22T07:29:22;99293.66;;;26.83
22269;BMP280;11303;50.772;19.670;2023-06-22T07:31:25;99294.53;;;26.89
22269;BMP280;11303;50.772;19.670;2023-06-22T07:33:26;99291.25;;;26.94
22269;BMP280;11303;50.772;19.670;2023-06-22T07:35:32;99285.31;;;26.81
22269;BMP280;11303;50.772;19.670;2023-06-22T07:37:34;99288.69;;;26.54
22269;BMP280;11303;50.772;19.670;2023-06-22T07:39:36;99290.44;;;26.29
22269;BMP280;11303;50.772;19.670;2023-06-22T07:41:39;99286.16;;;26.00
22269;BMP280;11303;50.772;19.670;2023-06-22T07:43:42;99284.09;;;26.45
22269;BMP280;11303;50.772;19.670;2023-06-22T07:45:48;99281.47;;;26.73
22269;BMP280;11303;50.772;19.670;2023-06-22T07:47:53;99292.47;;;26.25
22269;BMP280;11303;50.772;19.670;2023-06-22T07:49:58;99298.22;;;26.23
22269;BMP280;11303;50.772;19.670;2023-06-22T07:52:03;99292.25;;;26.51
22269;BMP280;11303;50.772;19.670;2023-06-22T07:54:08;99287.47;;;26.36
22269;BMP280;11303;50.772;19.670;2023-06-22T07:56:10;99299.81;;;26.52
22269;BMP280;11303;50.772;19.670;2023-06-22T07:58:12;99283.56;;;26.96
22269;BMP280;11303;50.772;19.670;2023-06-22T08:00:14;99287.72;;;27.06
22269;BMP280;11303;50.772;19.670;2023-06-22T08:02:16;99295.25;;;26.80
22269;BMP280;11303;50.772;19.670;2023-06-22T08:04:18;99289.19;;;27.17
22269;BMP280;11303;50.772;19.670;2023-06-22T08:06:20;99296.28;;;27.90
22269;BMP280;11303;50.772;19.670;2023-06-22T08:08:22;99297.09;;;27.63
22269;BMP280;11303;50.772;19.670;2023-06-22T08:10:24;99296.56;;;27.92
22269;BMP280;11303;50.772;19.670;2023-06-22T08:12:25;99301.41;;;27.69
22269;BMP280;11303;50.772;19.670;2023-06-22T08:14:29;99300.59;;;27.87
22269;BMP280;11303;50.772;19.670;2023-06-22T08:16:31;99304.84;;;28.27
22269;BMP280;11303;50.772;19.670;2023-06-22T08:18:33;99314.53;;;28.24
22269;BMP280;11303;50.772;19.670;2023-06-22T08:20:34;99309.19;;;28.24
22269;BMP280;11303;50.772;19.670;2023-06-22T08:22:36;99306.34;;;28.52
22269;BMP280;11303;50.772;19.670;2023-06-22T08:24:38;99319.09;;;28.96
22269;BMP280;11303;50.772;19.670;2023-06-22T08:26:39;99312.66;;;28.64
22269;BMP280;11303;50.772;19.670;2023-06-22T08:28:41;99315.84;;;28.92
22269;BMP280;11303;50.772;19.670;2023-06-22T08:30:42;99316.69;;;28.59
22269;BMP280;11303;50.772;19.670;2023-06-22T08:32:44;99322.34;;;29.00
22269;BMP280;11303;50.772;19.670;2023-06-22T08:34:46;99321.72;;;29.64
22269;BMP280;11303;50.772;19.670;2023-06-22T08:36:48;99319.88;;;29.41
22269;BMP280;11303;50.772;19.670;2023-06-22T08:38:53;99320.06;;;29.08
22269;BMP280;11303;50.772;19.670;2023-06-22T08:40:55;99317.44;;;29.13
22269;BMP280;11303;50.772;19.670;2023-06-22T08:42:57;99314.69;;;29.08
22269;BMP280;11303;50.772;19.670;2023-06-22T08:44:59;99316.16;;;29.09
22269;BMP280;11303;50.772;19.670;2023-06-22T08:47:01;99326.84;;;28.55
22269;BMP280;11303;50.772;19.670;2023-06-22T08:49:03;99316.66;;;28.44
22269;BMP280;11303;50.772;19.670;2023-06-22T08:51:05;99313.19;;;28.29
22269;BMP280;11303;50.772;19.670;2023-06-22T08:53:07;99316.91;;;27.38
22269;BMP280;11303;50.772;19.670;2023-06-22T08:55:09;99314.22;;;27.47
22269;BMP280;11303;50.772;19.670;2023-06-22T08:57:11;99317.91;;;28.01
22269;BMP280;11303;50.772;19.670;2023-06-22T08:59:13;99323.28;;;28.25
22269;BMP280;11303;50.772;19.670;2023-06-22T09:01:14;99315.19;;;28.10
22269;BMP280;11303;50.772;19.670;2023-06-22T09:03:17;99317.47;;;27.93
22269;BMP280;11303;50.772;19.670;2023-06-22T09:05:19;99316.38;;;28.42
22269;BMP280;11303;50.772;19.670;2023-06-22T09:07:24;99316.25;;;29.00
22269;BMP280;11303;50.772;19.670;2023-06-22T09:09:26;99323.06;;;28.62
22269;BMP280;11303;50.772;19.670;2023-06-22T09:11:27;99324.19;;;27.89
22269;BMP280;11303;50.772;19.670;2023-06-22T09:13:30;99320.13;;;27.60
22269;BMP280;11303;50.772;19.670;2023-06-22T09:15:32;99320.38;;;27.71
22269;BMP280;11303;50.772;19.670;2023-06-22T09:17:34;99317.47;;;27.93
22269;BMP280;11303;50.772;19.670;2023-06-22T09:19:36;99320.22;;;28.65
22269;BMP280;11303;50.772;19.670;2023-06-22T09:21:38;99320.06;;;27.88
22269;BMP280;11303;50.772;19.670;2023-06-22T09:23:40;99322.19;;;27.56
22269;BMP280;11303;50.772;19.670;2023-06-22T09:25:41;99318.84;;;27.19
22269;BMP280;11303;50.772;19.670;2023-06-22T09:27:43;99322.56;;;27.30
22269;BMP280;11303;50.772;19.670;2023-06-22T09:29:45;99317.31;;;27.45
22269;BMP280;11303;50.772;19.670;2023-06-22T09:31:46;99321.44;;;28.40
22269;BMP280;11303;50.772;19.670;2023-06-22T09:33:48;99318.84;;;29.09
22269;BMP280;11303;50.772;19.670;2023-06-22T09:35:50;99309.88;;;28.58
22269;BMP280;11303;50.772;19.670;2023-06-22T09:37:52;99321.66;;;28.76
22269;BMP280;11303;50.772;19.670;2023-06-22T09:39:56;99315.63;;;29.05
22269;BMP280;11303;50.772;19.670;2023-06-22T09:41:59;99318.88;;;29.24
22269;BMP280;11303;50.772;19.670;2023-06-22T09:44:01;99319.41;;;29.72
22269;BMP280;11303;50.772;19.670;2023-06-22T09:46:03;99318.31;;;30.20
22269;BMP280;11303;50.772;19.670;2023-06-22T09:48:05;99314.44;;;30.62
22269;BMP280;11303;50.772;19.670;2023-06-22T09:50:07;99314.94;;;30.66
22269;BMP280;11303;50.772;19.670;2023-06-22T09:52:09;99311.59;;;31.23
22269;BMP280;11303;50.772;19.670;2023-06-22T09:54:12;99314.13;;;31.06
22269;BMP280;11303;50.772;19.670;2023-06-22T09:56:14;99312.75;;;31.48
22269;BMP280;11303;50.772;19.670;2023-06-22T09:58:16;99303.56;;;31.66
22269;BMP280;11303;50.772;19.670;2023-06-22T10:00:18;99301.66;;;31.35
22269;BMP280;11303;50.772;19.670;2023-06-22T10:02:20;99300.22;;;31.39
22269;BMP280;11303;50.772;19.670;2023-06-22T10:04:23;99313.34;;;31.63
22269;BMP280;11303;50.772;19.670;2023-06-22T10:06:26;99305.84;;;31.36
22269;BMP280;11303;50.772;19.670;2023-06-22T10:08:28;99305.94;;;31.52
22269;BMP280;11303;50.772;19.670;2023-06-22T10:10:29;99307.72;;;32.10
22269;BMP280;11303;50.772;19.670;2023-06-22T10:12:31;99307.50;;;32.19
22269;BMP280;11303;50.772;19.670;2023-06-22T10:14:32;99297.41;;;32.02
22269;BMP280;11303;50.772;19.670;2023-06-22T10:16:36;99297.34;;;32.73
22269;BMP280;11303;50.772;19.670;2023-06-22T10:18:37;99288.47;;;33.52
22269;BMP280;11303;50.772;19.670;2023-06-22T10:20:39;99280.88;;;33.50
22269;BMP280;11303;50.772;19.670;2023-06-22T10:22:42;99283.16;;;33.18
22269;BMP280;11303;50.772;19.670;2023-06-22T10:24:44;99282.13;;;32.42
22269;BMP280;11303;50.772;19.670;2023-06-22T10:26:46;99283.00;;;32.11
22269;BMP280;11303;50.772;19.670;2023-06-22T10:28:47;99276.16;;;32.10
22269;BMP280;11303;50.772;19.670;2023-06-22T10:30:49;99277.25;;;32.35
22269;BMP280;11303;50.772;19.670;2023-06-22T10:32:51;99278.03;;;32.69
22269;BMP280;11303;50.772;19.670;2023-06-22T10:34:52;99281.22;;;33.02
22269;BMP280;11303;50.772;19.670;2023-06-22T10:36:54;99277.94;;;32.19
22269;BMP280;11303;50.772;19.670;2023-06-22T10:38:56;99279.88;;;30.95
22269;BMP280;11303;50.772;19.670;2023-06-22T10:41:00;99290.44;;;31.30
22269;BMP280;11303;50.772;19.670;2023-06-22T10:43:02;99282.19;;;32.70
22269;BMP280;11303;50.772;19.670;2023-06-22T10:45:04;99288.13;;;33.78
22269;BMP280;11303;50.772;19.670;2023-06-22T10:47:06;99278.78;;;34.31
22269;BMP280;11303;50.772;19.670;2023-06-22T10:49:07;99273.59;;;34.69
22269;BMP280;11303;50.772;19.670;2023-06-22T10:51:09;99278.38;;;34.87
22269;BMP280;11303;50.772;19.670;2023-06-22T10:53:10;99274.66;;;34.90
22269;BMP280;11303;50.772;19.670;2023-06-22T10:55:12;99263.34;;;34.92
22269;BMP280;11303;50.772;19.670;2023-06-22T10:57:14;99261.41;;;34.87
22269;BMP280;11303;50.772;19.670;2023-06-22T10:59:15;99262.19;;;34.82
22269;BMP280;11303;50.772;19.670;2023-06-22T11:01:17;99257.31;;;34.50
22269;BMP280;11303;50.772;19.670;2023-06-22T11:03:36;99267.06;;;33.76
22269;BMP280;11303;50.772;19.670;2023-06-22T11:05:38;99264.44;;;32.08
22269;BMP280;11303;50.772;19.670;2023-06-22T11:07:43;99261.75;;;32.13
22269;BMP280;11303;50.772;19.670;2023-06-22T11:09:50;99255.75;;;32.52
22269;BMP280;11303;50.772;19.670;2023-06-22T11:11:52;99262.34;;;32.79
22269;BMP280;11303;50.772;19.670;2023-06-22T11:13:54;99251.81;;;32.53
22269;BMP280;11303;50.772;19.670;2023-06-22T11:15:56;99264.03;;;31.66
22269;BMP280;11303;50.772;19.670;2023-06-22T11:17:58;99256.09;;;31.94
22269;BMP280;11303;50.772;19.670;2023-06-22T11:20:00;99241.66;;;31.43
22269;BMP280;11303;50.772;19.670;2023-06-22T11:22:02;99254.47;;;30.18
22269;BMP280;11303;50.772;19.670;2023-06-22T11:24:03;99254.63;;;29.24
22269;BMP280;11303;50.772;19.670;2023-06-22T11:26:05;99247.56;;;29.56
22269;BMP280;11303;50.772;19.670;2023-06-22T11:28:07;99245.69;;;29.97
22269;BMP280;11303;50.772;19.670;2023-06-22T11:30:09;99241.38;;;30.46
22269;BMP280;11303;50.772;19.670;2023-06-22T11:32:10;99242.31;;;30.95
22269;BMP280;11303;50.772;19.670;2023-06-22T11:34:15;99237.38;;;30.88
22269;BMP280;11303;50.772;19.670;2023-06-22T11:36:17;99233.75;;;30.65
22269;BMP280;11303;50.772;19.670;2023-06-22T11:38:18;99236.53;;;30.50
22269;BMP280;11303;50.772;19.670;2023-06-22T11:40:20;99235.88;;;30.35
22269;BMP280;11303;50.772;19.670;2023-06-22T11:42:22;99234.34;;;30.54